sensor_id;sensor_type;location;lat;lon;timestamp;P1;durP1;ratioP1;P2;durP2;ratioP2
6598;SDS011;3335;43.198;27.918;2022-09-28T00:02:55;4.43;;;3.07;;
6598;SDS011;3335;43.198;27.918;2022-09-28T00:06:30;3.53;;;2.90;;
6598;SDS011;3335;43.198;27.918;2022-09-28T00:13:02;6.87;;;2.60;;
6598;SDS011;3335;43.198;27.918;2022-09-28T00:16:15;4.23;;;3.00;;
6598;SDS011;3335;43.198;27.918;2022-09-28T00:23:11;5.77;;;2.93;;
6598;SDS011;3335;43.198;27.918;2022-09-28T00:25:46;3.90;;;2.43;;
6598;SDS011;3335;43.198;27.918;2022-09-28T00:28:19;4.97;;;2.47;;
6598;SDS011;3335;43.198;27.918;2022-09-28T00:31:44;4.00;;;2.93;;
6598;SDS011;3335;43.198;27.918;2022-09-28T00:41:45;4.80;;;3.13;;
6598;SDS011;3335;43.198;27.918;2022-09-28T00:50:11;5.67;;;3.53;;
6598;SDS011;3335;43.198;27.918;2022-09-28T01:00:08;4.43;;;3.70;;
6598;SDS011;3335;43.198;27.918;2022-09-28T01:03:05;5.70;;;3.33;;
6598;SDS011;3335;43.198;27.918;2022-09-28T01:05:41;7.30;;;3.97;;
6598;SDS011;3335;43.198;27.918;2022-09-28T01:19:00;6.97;;;4.63;;
6598;SDS011;3335;43.198;27.918;2022-09-28T01:22:26;8.47;;;5.10;;
6598;SDS011;3335;43.198;27.918;2022-09-28T01:35:58;7.60;;;5.53;;
6598;SDS011;3335;43.198;27.918;2022-09-28T01:38:49;8.13;;;5.33;;
6598;SDS011;3335;43.198;27.918;2022-09-28T01:41:53;7.87;;;5.10;;
6598;SDS011;3335;43.198;27.918;2022-09-28T01:44:34;8.60;;;5.70;;
6598;SDS011;3335;43.198;27.918;2022-09-28T01:47:26;10.37;;;4.90;;
6598;SDS011;3335;43.198;27.918;2022-09-28T01:50:10;9.17;;;4.93;;
6598;SDS011;3335;43.198;27.918;2022-09-28T01:53:03;8.37;;;5.30;;
6598;SDS011;3335;43.198;27.918;2022-09-28T01:55:45;7.87;;;5.20;;
6598;SDS011;3335;43.198;27.918;2022-09-28T01:58:32;8.30;;;5.43;;
6598;SDS011;3335;43.198;27.918;2022-09-28T02:01:12;10.53;;;5.70;;
6598;SDS011;3335;43.198;27.918;2022-09-28T02:04:09;12.47;;;6.93;;
6598;SDS011;3335;43.198;27.918;2022-09-28T02:06:44;121.70;;;22.43;;
6598;SDS011;3335;43.198;27.918;2022-09-28T02:09:24;213.73;;;23.57;;
6598;SDS011;3335;43.198;27.918;2022-09-28T02:12:08;16.33;;;8.67;;
6598;SDS011;3335;43.198;27.918;2022-09-28T02:14:41;20.83;;;9.77;;
6598;SDS011;3335;43.198;27.918;2022-09-28T02:17:23;21.63;;;8.67;;
6598;SDS011;3335;43.198;27.918;2022-09-28T02:23:05;15.53;;;9.17;;
6598;SDS011;3335;43.198;27.918;2022-09-28T02:33:04;13.60;;;8.43;;
6598;SDS011;3335;43.198;27.918;2022-09-28T02:35:44;13.90;;;8.10;;
6598;SDS011;3335;43.198;27.918;2022-09-28T02:38:17;13.97;;;8.03;;
6598;SDS011;3335;43.198;27.918;2022-09-28T02:40:58;11.43;;;7.30;;
6598;SDS011;3335;43.198;27.918;2022-09-28T02:43:35;11.77;;;5.73;;
6598;SDS011;3335;43.198;27.918;2022-09-28T02:46:39;6.97;;;4.30;;
6598;SDS011;3335;43.198;27.918;2022-09-28T02:49:31;3.53;;;2.53;;
6598;SDS011;3335;43.198;27.918;2022-09-28T02:55:42;0.90;;;0.90;;
6598;SDS011;3335;43.198;27.918;2022-09-28T03:01:50;0.40;;;0.40;;
6598;SDS011;3335;43.198;27.918;2022-09-28T03:08:28;0.30;;;0.30;;
6598;SDS011;3335;43.198;27.918;2022-09-28T03:11:15;0.57;;;0.57;;
6598;SDS011;3335;43.198;27.918;2022-09-28T03:16:58;0.40;;;0.40;;
6598;SDS011;3335;43.198;27.918;2022-09-28T03:19:39;0.50;;;0.50;;
6598;SDS011;3335;43.198;27.918;2022-09-28T03:33:13;0.30;;;0.30;;
6598;SDS011;3335;43.198;27.918;2022-09-28T03:35:41;0.40;;;0.40;;
6598;SDS011;3335;43.198;27.918;2022-09-28T03:38:12;0.33;;;0.33;;
6598;SDS011;3335;43.198;27.918;2022-09-28T03:40:40;0.30;;;0.30;;
6598;SDS011;3335;43.198;27.918;2022-09-28T03:43:08;0.30;;;0.30;;
6598;SDS011;3335;43.198;27.918;2022-09-28T03:45:37;0.50;;;0.50;;
6598;SDS011;3335;43.198;27.918;2022-09-28T03:48:05;0.30;;;0.30;;
6598;SDS011;3335;43.198;27.918;2022-09-28T03:50:32;0.33;;;0.33;;
6598;SDS011;3335;43.198;27.918;2022-09-28T03:53:01;0.40;;;0.40;;
6598;SDS011;3335;43.198;27.918;2022-09-28T03:55:29;0.50;;;0.50;;
6598;SDS011;3335;43.198;27.918;2022-09-28T03:57:57;0.30;;;0.30;;
6598;SDS011;3335;43.198;27.918;2022-09-28T04:00:24;0.53;;;0.53;;
6598;SDS011;3335;43.198;27.918;2022-09-28T04:02:54;0.30;;;0.30;;
6598;SDS011;3335;43.198;27.918;2022-09-28T04:05:22;0.30;;;0.30;;
6598;SDS011;3335;43.198;27.918;2022-09-28T04:07:49;0.20;;;0.20;;
6598;SDS011;3335;43.198;27.918;2022-09-28T04:10:18;0.30;;;0.30;;
6598;SDS011;3335;43.198;27.918;2022-09-28T04:12:52;7.03;;;2.77;;
6598;SDS011;3335;43.198;27.918;2022-09-28T04:15:40;1.63;;;1.53;;
6598;SDS011;3335;43.198;27.918;2022-09-28T04:18:56;0.40;;;0.40;;
6598;SDS011;3335;43.198;27.918;2022-09-28T04:21:25;0.27;;;0.27;;
6598;SDS011;3335;43.198;27.918;2022-09-28T04:23:54;0.33;;;0.33;;
6598;SDS011;3335;43.198;27.918;2022-09-28T04:32:53;0.40;;;0.40;;
6598;SDS011;3335;43.198;27.918;2022-09-28T04:35:44;0.40;;;0.40;;
6598;SDS011;3335;43.198;27.918;2022-09-28T04:41:15;0.43;;;0.43;;
6598;SDS011;3335;43.198;27.918;2022-09-28T04:44:14;0.40;;;0.40;;
6598;SDS011;3335;43.198;27.918;2022-09-28T04:47:16;0.50;;;0.50;;
6598;SDS011;3335;43.198;27.918;2022-09-28T04:50:31;0.50;;;0.50;;
6598;SDS011;3335;43.198;27.918;2022-09-28T04:56:52;0.37;;;0.37;;
6598;SDS011;3335;43.198;27.918;2022-09-28T05:00:11;0.30;;;0.30;;
6598;SDS011;3335;43.198;27.918;2022-09-28T05:03:35;0.30;;;0.30;;
6598;SDS011;3335;43.198;27.918;2022-09-28T05:09:08;0.30;;;0.30;;
6598;SDS011;3335;43.198;27.918;2022-09-28T05:12:03;0.30;;;0.30;;
6598;SDS011;3335;43.198;27.918;2022-09-28T05:14:37;0.33;;;0.33;;
6598;SDS011;3335;43.198;27.918;2022-09-28T05:22:55;0.33;;;0.33;;
6598;SDS011;3335;43.198;27.918;2022-09-28T05:25:35;0.40;;;0.40;;
6598;SDS011;3335;43.198;27.918;2022-09-28T05:31:50;0.30;;;0.30;;
6598;SDS011;3335;43.198;27.918;2022-09-28T05:34:21;0.30;;;0.30;;
6598;SDS011;3335;43.198;27.918;2022-09-28T05:50:21;0.57;;;0.57;;
6598;SDS011;3335;43.198;27.918;2022-09-28T05:52:57;0.33;;;0.33;;
6598;SDS011;3335;43.198;27.918;2022-09-28T05:55:27;0.40;;;0.40;;
6598;SDS011;3335;43.198;27.918;2022-09-28T05:58:03;0.57;;;0.57;;
6598;SDS011;3335;43.198;27.918;2022-09-28T06:00:39;0.43;;;0.43;;
6598;SDS011;3335;43.198;27.918;2022-09-28T06:06:08;0.40;;;0.40;;
6598;SDS011;3335;43.198;27.918;2022-09-28T06:08:39;0.43;;;0.43;;
6598;SDS011;3335;43.198;27.918;2022-09-28T06:14:35;0.40;;;0.40;;
6598;SDS011;3335;43.198;27.918;2022-09-28T06:17:05;0.30;;;0.30;;
6598;SDS011;3335;43.198;27.918;2022-09-28T06:19:35;0.30;;;0.30;;
6598;SDS011;3335;43.198;27.918;2022-09-28T06:22:13;0.97;;;0.97;;
6598;SDS011;3335;43.198;27.918;2022-09-28T06:24:42;0.43;;;0.43;;
6598;SDS011;3335;43.198;27.918;2022-09-28T06:27:11;0.30;;;0.30;;
6598;SDS011;3335;43.198;27.918;2022-09-28T06:29:40;1.07;;;0.97;;
6598;SDS011;3335;43.198;27.918;2022-09-28T06:32:11;0.40;;;0.40;;
6598;SDS011;3335;43.198;27.918;2022-09-28T06:34:39;0.53;;;0.53;;
6598;SDS011;3335;43.198;27.918;2022-09-28T06:37:09;0.40;;;0.40;;
6598;SDS011;3335;43.198;27.918;2022-09-28T06:39:40;0.30;;;0.30;;
6598;SDS011;3335;43.198;27.918;2022-09-28T06:42:09;0.33;;;0.33;;
6598;SDS011;3335;43.198;27.918;2022-09-28T06:44:40;0.50;;;0.50;;
6598;SDS011;3335;43.198;27.918;2022-09-28T06:47:11;0.40;;;0.40;;
6598;SDS011;3335;43.198;27.918;2022-09-28T06:49:40;0.47;;;0.47;;
6598;SDS011;3335;43.198;27.918;2022-09-28T06:52:10;0.30;;;0.30;;
6598;SDS011;3335;43.198;27.918;2022-09-28T06:54:40;0.47;;;0.47;;
6598;SDS011;3335;43.198;27.918;2022-09-28T06:57:10;0.40;;;0.40;;
6598;SDS011;3335;43.198;27.918;2022-09-28T06:59:39;0.37;;;0.37;;
6598;SDS011;3335;43.198;27.918;2022-09-28T07:02:09;0.57;;;0.57;;
6598;SDS011;3335;43.198;27.918;2022-09-28T07:04:44;0.30;;;0.30;;
6598;SDS011;3335;43.198;27.918;2022-09-28T07:07:12;0.30;;;0.30;;
6598;SDS011;3335;43.198;27.918;2022-09-28T07:09:47;0.40;;;0.40;;
6598;SDS011;3335;43.198;27.918;2022-09-28T07:12:22;0.93;;;0.93;;
6598;SDS011;3335;43.198;27.918;2022-09-28T07:14:52;0.40;;;0.40;;
6598;SDS011;3335;43.198;27.918;2022-09-28T07:17:32;0.30;;;0.30;;
6598;SDS011;3335;43.198;27.918;2022-09-28T07:20:01;0.30;;;0.30;;
6598;SDS011;3335;43.198;27.918;2022-09-28T07:22:30;0.40;;;0.40;;
6598;SDS011;3335;43.198;27.918;2022-09-28T07:25:04;0.60;;;0.60;;
6598;SDS011;3335;43.198;27.918;2022-09-28T07:27:40;0.40;;;0.40;;
6598;SDS011;3335;43.198;27.918;2022-09-28T07:30:09;0.57;;;0.57;;
6598;SDS011;3335;43.198;27.918;2022-09-28T07:32:38;0.30;;;0.30;;
6598;SDS011;3335;43.198;27.918;2022-09-28T07:35:17;0.30;;;0.30;;
6598;SDS011;3335;43.198;27.918;2022-09-28T07:37:47;0.30;;;0.30;;
6598;SDS011;3335;43.198;27.918;2022-09-28T07:40:17;0.47;;;0.47;;
6598;SDS011;3335;43.198;27.918;2022-09-28T07:43:03;0.30;;;0.30;;
6598;SDS011;3335;43.198;27.918;2022-09-28T07:45:31;0.37;;;0.37;;
6598;SDS011;3335;43.198;27.918;2022-09-28T07:48:02;0.30;;;0.30;;
6598;SDS011;3335;43.198;27.918;2022-09-28T07:50:46;0.40;;;0.40;;
6598;SDS011;3335;43.198;27.918;2022-09-28T07:53:17;0.30;;;0.30;;
6598;SDS011;3335;43.198;27.918;2022-09-28T07:55:54;0.30;;;0.30;;
6598;SDS011;3335;43.198;27.918;2022-09-28T07:58:29;0.30;;;0.30;;
6598;SDS011;3335;43.198;27.918;2022-09-28T08:01:01;0.30;;;0.30;;
6598;SDS011;3335;43.198;27.918;2022-09-28T08:03:31;0.30;;;0.30;;
6598;SDS011;3335;43.198;27.918;2022-09-28T08:06:00;0.30;;;0.30;;
6598;SDS011;3335;43.198;27.918;2022-09-28T08:08:32;0.30;;;0.30;;
6598;SDS011;3335;43.198;27.918;2022-09-28T08:11:02;4.43;;;1.50;;
6598;SDS011;3335;43.198;27.918;2022-09-28T08:13:35;0.30;;;0.30;;
6598;SDS011;3335;43.198;27.918;2022-09-28T08:16:12;0.30;;;0.30;;
6598;SDS011;3335;43.198;27.918;2022-09-28T08:18:43;0.30;;;0.30;;
6598;SDS011;3335;43.198;27.918;2022-09-28T08:21:22;0.30;;;0.30;;
6598;SDS011;3335;43.198;27.918;2022-09-28T08:24:08;0.30;;;0.30;;
6598;SDS011;3335;43.198;27.918;2022-09-28T08:26:38;0.30;;;0.30;;
6598;SDS011;3335;43.198;27.918;2022-09-28T08:29:06;0.30;;;0.30;;
6598;SDS011;3335;43.198;27.918;2022-09-28T08:31:35;0.30;;;0.30;;
6598;SDS011;3335;43.198;27.918;2022-09-28T08:34:03;0.30;;;0.30;;
6598;SDS011;3335;43.198;27.918;2022-09-28T08:36:31;0.20;;;0.20;;
6598;SDS011;3335;43.198;27.918;2022-09-28T08:39:02;0.30;;;0.30;;
6598;SDS011;3335;43.198;27.918;2022-09-28T08:41:34;0.20;;;0.20;;
6598;SDS011;3335;43.198;27.918;2022-09-28T08:44:19;0.30;;;0.30;;
6598;SDS011;3335;43.198;27.918;2022-09-28T08:46:50;0.30;;;0.30;;
6598;SDS011;3335;43.198;27.918;2022-09-28T08:49:24;0.30;;;0.30;;
6598;SDS011;3335;43.198;27.918;2022-09-28T08:52:09;0.23;;;0.23;;
6598;SDS011;3335;43.198;27.918;2022-09-28T08:54:48;0.20;;;0.20;;
6598;SDS011;3335;43.198;27.918;2022-09-28T08:57:27;0.30;;;0.30;;
6598;SDS011;3335;43.198;27.918;2022-09-28T09:00:26;0.20;;;0.20;;
6598;SDS011;3335;43.198;27.918;2022-09-28T09:03:02;0.27;;;0.27;;
6598;SDS011;3335;43.198;27.918;2022-09-28T09:05:41;0.20;;;0.20;;
6598;SDS011;3335;43.198;27.918;2022-09-28T09:08:29;0.20;;;0.20;;
6598;SDS011;3335;43.198;27.918;2022-09-28T09:11:20;0.20;;;0.20;;
6598;SDS011;3335;43.198;27.918;2022-09-28T09:14:13;1.73;;;1.63;;
6598;SDS011;3335;43.198;27.918;2022-09-28T09:16:53;0.20;;;0.20;;
6598;SDS011;3335;43.198;27.918;2022-09-28T09:19:33;0.63;;;0.63;;
6598;SDS011;3335;43.198;27.918;2022-09-28T09:22:15;0.10;;;0.10;;
6598;SDS011;3335;43.198;27.918;2022-09-28T09:24:48;0.20;;;0.20;;
6598;SDS011;3335;43.198;27.918;2022-09-28T09:27:30;0.20;;;0.20;;
6598;SDS011;3335;43.198;27.918;2022-09-28T09:30:09;0.20;;;0.20;;
6598;SDS011;3335;43.198;27.918;2022-09-28T09:32:45;0.20;;;0.20;;
6598;SDS011;3335;43.198;27.918;2022-09-28T09:38:40;0.20;;;0.20;;
6598;SDS011;3335;43.198;27.918;2022-09-28T09:41:17;0.20;;;0.20;;
6598;SDS011;3335;43.198;27.918;2022-09-28T09:44:07;0.10;;;0.10;;
6598;SDS011;3335;43.198;27.918;2022-09-28T09:46:50;0.20;;;0.20;;
6598;SDS011;3335;43.198;27.918;2022-09-28T09:49:23;0.20;;;0.20;;
6598;SDS011;3335;43.198;27.918;2022-09-28T09:51:56;0.10;;;0.10;;
6598;SDS011;3335;43.198;27.918;2022-09-28T09:54:32;1.13;;;1.03;;
6598;SDS011;3335;43.198;27.918;2022-09-28T09:57:15;0.20;;;0.20;;
6598;SDS011;3335;43.198;27.918;2022-09-28T09:59:47;0.20;;;0.20;;
6598;SDS011;3335;43.198;27.918;2022-09-28T10:02:25;0.10;;;0.10;;
6598;SDS011;3335;43.198;27.918;2022-09-28T10:04:57;0.20;;;0.20;;
6598;SDS011;3335;43.198;27.918;2022-09-28T10:07:33;0.10;;;0.10;;
6598;SDS011;3335;43.198;27.918;2022-09-28T10:10:10;0.20;;;0.20;;
6598;SDS011;3335;43.198;27.918;2022-09-28T10:13:09;0.10;;;0.10;;
6598;SDS011;3335;43.198;27.918;2022-09-28T10:15:46;0.10;;;0.10;;
6598;SDS011;3335;43.198;27.918;2022-09-28T10:18:20;0.13;;;0.13;;
6598;SDS011;3335;43.198;27.918;2022-09-28T10:20:51;0.10;;;0.10;;
6598;SDS011;3335;43.198;27.918;2022-09-28T10:23:39;0.10;;;0.10;;
6598;SDS011;3335;43.198;27.918;2022-09-28T10:26:14;0.10;;;0.10;;
6598;SDS011;3335;43.198;27.918;2022-09-28T10:29:01;0.13;;;0.13;;
6598;SDS011;3335;43.198;27.918;2022-09-28T10:31:53;0.10;;;0.10;;
6598;SDS011;3335;43.198;27.918;2022-09-28T10:34:26;0.10;;;0.10;;
6598;SDS011;3335;43.198;27.918;2022-09-28T10:37:20;0.20;;;0.20;;
6598;SDS011;3335;43.198;27.918;2022-09-28T10:39:52;0.10;;;0.10;;
6598;SDS011;3335;43.198;27.918;2022-09-28T10:42:33;0.20;;;0.20;;
6598;SDS011;3335;43.198;27.918;2022-09-28T10:45:02;0.10;;;0.10;;
6598;SDS011;3335;43.198;27.918;2022-09-28T10:48:04;0.10;;;0.10;;
6598;SDS011;3335;43.198;27.918;2022-09-28T10:53:35;0.10;;;0.10;;
6598;SDS011;3335;43.198;27.918;2022-09-28T10:56:22;0.10;;;0.10;;
6598;SDS011;3335;43.198;27.918;2022-09-28T10:58:57;0.10;;;0.10;;
6598;SDS011;3335;43.198;27.918;2022-09-28T11:01:29;0.10;;;0.10;;
6598;SDS011;3335;43.198;27.918;2022-09-28T11:04:00;0.10;;;0.10;;
6598;SDS011;3335;43.198;27.918;2022-09-28T11:06:34;0.10;;;0.10;;
6598;SDS011;3335;43.198;27.918;2022-09-28T11:09:24;0.10;;;0.10;;
6598;SDS011;3335;43.198;27.918;2022-09-28T11:11:57;0.17;;;0.17;;
6598;SDS011;3335;43.198;27.918;2022-09-28T11:14:42;0.10;;;0.10;;
6598;SDS011;3335;43.198;27.918;2022-09-28T11:17:22;0.10;;;0.10;;
6598;SDS011;3335;43.198;27.918;2022-09-28T11:20:00;0.10;;;0.10;;
6598;SDS011;3335;43.198;27.918;2022-09-28T11:22:53;0.20;;;0.20;;
6598;SDS011;3335;43.198;27.918;2022-09-28T11:25:28;0.10;;;0.10;;
6598;SDS011;3335;43.198;27.918;2022-09-28T11:28:02;0.10;;;0.10;;
6598;SDS011;3335;43.198;27.918;2022-09-28T11:30:37;0.10;;;0.10;;
6598;SDS011;3335;43.198;27.918;2022-09-28T11:33:30;0.30;;;0.30;;
6598;SDS011;3335;43.198;27.918;2022-09-28T11:39:07;0.20;;;0.20;;
6598;SDS011;3335;43.198;27.918;2022-09-28T11:41:50;0.10;;;0.10;;
6598;SDS011;3335;43.198;27.918;2022-09-28T11:44:34;0.10;;;0.10;;
6598;SDS011;3335;43.198;27.918;2022-09-28T11:47:12;0.10;;;0.10;;
6598;SDS011;3335;43.198;27.918;2022-09-28T11:49:52;0.00;;;0.00;;
6598;SDS011;3335;43.198;27.918;2022-09-28T11:52:33;0.10;;;0.10;;
6598;SDS011;3335;43.198;27.918;2022-09-28T11:55:08;0.20;;;0.20;;
6598;SDS011;3335;43.198;27.918;2022-09-28T11:57:41;0.10;;;0.10;;
6598;SDS011;3335;43.198;27.918;2022-09-28T12:00:13;0.10;;;0.10;;
6598;SDS011;3335;43.198;27.918;2022-09-28T12:02:44;0.10;;;0.10;;
6598;SDS011;3335;43.198;27.918;2022-09-28T12:05:18;0.10;;;0.10;;
6598;SDS011;3335;43.198;27.918;2022-09-28T12:07:52;0.10;;;0.10;;
6598;SDS011;3335;43.198;27.918;2022-09-28T12:10:28;0.10;;;0.10;;
6598;SDS011;3335;43.198;27.918;2022-09-28T12:13:02;0.10;;;0.10;;
6598;SDS011;3335;43.198;27.918;2022-09-28T12:15:39;0.10;;;0.10;;
6598;SDS011;3335;43.198;27.918;2022-09-28T12:18:11;0.90;;;0.83;;
6598;SDS011;3335;43.198;27.918;2022-09-28T12:20:45;0.10;;;0.10;;
6598;SDS011;3335;43.198;27.918;2022-09-28T12:23:15;0.10;;;0.10;;
6598;SDS011;3335;43.198;27.918;2022-09-28T12:25:54;0.35;;;0.35;;
6598;SDS011;3335;43.198;27.918;2022-09-28T12:28:27;0.10;;;0.10;;
6598;SDS011;3335;43.198;27.918;2022-09-28T12:31:01;0.10;;;0.10;;
6598;SDS011;3335;43.198;27.918;2022-09-28T12:33:44;0.25;;;0.25;;
6598;SDS011;3335;43.198;27.918;2022-09-28T12:36:15;0.10;;;0.10;;
6598;SDS011;3335;43.198;27.918;2022-09-28T12:41:56;0.10;;;0.10;;
6598;SDS011;3335;43.198;27.918;2022-09-28T12:44:37;0.10;;;0.10;;
6598;SDS011;3335;43.198;27.918;2022-09-28T12:50:16;0.10;;;0.10;;
6598;SDS011;3335;43.198;27.918;2022-09-28T12:52:54;0.10;;;0.10;;
6598;SDS011;3335;43.198;27.918;2022-09-28T12:55:56;0.10;;;0.10;;
6598;SDS011;3335;43.198;27.918;2022-09-28T12:58:40;0.10;;;0.10;;
6598;SDS011;3335;43.198;27.918;2022-09-28T13:01:24;0.10;;;0.10;;
6598;SDS011;3335;43.198;27.918;2022-09-28T13:07:16;0.10;;;0.10;;
6598;SDS011;3335;43.198;27.918;2022-09-28T13:10:22;0.10;;;0.10;;
6598;SDS011;3335;43.198;27.918;2022-09-28T13:13:10;0.10;;;0.10;;
6598;SDS011;3335;43.198;27.918;2022-09-28T13:15:56;0.20;;;0.20;;
6598;SDS011;3335;43.198;27.918;2022-09-28T13:18:33;0.10;;;0.10;;
6598;SDS011;3335;43.198;27.918;2022-09-28T13:21:17;0.10;;;0.10;;
6598;SDS011;3335;43.198;27.918;2022-09-28T13:24:00;0.10;;;0.10;;
6598;SDS011;3335;43.198;27.918;2022-09-28T13:26:31;0.10;;;0.10;;
6598;SDS011;3335;43.198;27.918;2022-09-28T13:29:06;0.27;;;0.27;;
6598;SDS011;3335;43.198;27.918;2022-09-28T13:31:45;1.37;;;1.27;;
6598;SDS011;3335;43.198;27.918;2022-09-28T13:34:17;0.17;;;0.17;;
6598;SDS011;3335;43.198;27.918;2022-09-28T13:39:48;0.17;;;0.17;;
6598;SDS011;3335;43.198;27.918;2022-09-28T13:42:23;0.10;;;0.10;;
6598;SDS011;3335;43.198;27.918;2022-09-28T13:45:17;0.10;;;0.10;;
6598;SDS011;3335;43.198;27.918;2022-09-28T13:48:12;0.10;;;0.10;;
6598;SDS011;3335;43.198;27.918;2022-09-28T13:50:49;0.10;;;0.10;;
6598;SDS011;3335;43.198;27.918;2022-09-28T13:53:41;0.20;;;0.20;;
6598;SDS011;3335;43.198;27.918;2022-09-28T13:56:31;0.20;;;0.20;;
6598;SDS011;3335;43.198;27.918;2022-09-28T13:59:12;1.13;;;1.03;;
6598;SDS011;3335;43.198;27.918;2022-09-28T14:01:50;0.10;;;0.10;;
6598;SDS011;3335;43.198;27.918;2022-09-28T14:07:23;0.13;;;0.13;;
6598;SDS011;3335;43.198;27.918;2022-09-28T14:10:13;0.20;;;0.20;;
6598;SDS011;3335;43.198;27.918;2022-09-28T14:12:49;0.40;;;0.40;;
6598;SDS011;3335;43.198;27.918;2022-09-28T14:15:41;0.53;;;0.53;;
6598;SDS011;3335;43.198;27.918;2022-09-28T14:18:21;0.10;;;0.10;;
6598;SDS011;3335;43.198;27.918;2022-09-28T14:21:18;0.10;;;0.10;;
6598;SDS011;3335;43.198;27.918;2022-09-28T14:24:10;0.10;;;0.10;;
6598;SDS011;3335;43.198;27.918;2022-09-28T14:30:15;0.10;;;0.10;;
6598;SDS011;3335;43.198;27.918;2022-09-28T14:32:47;0.10;;;0.10;;
6598;SDS011;3335;43.198;27.918;2022-09-28T14:35:22;0.20;;;0.20;;
6598;SDS011;3335;43.198;27.918;2022-09-28T14:37:58;0.20;;;0.20;;
6598;SDS011;3335;43.198;27.918;2022-09-28T14:40:52;0.20;;;0.20;;
6598;SDS011;3335;43.198;27.918;2022-09-28T14:46:33;0.20;;;0.20;;
6598;SDS011;3335;43.198;27.918;2022-09-28T14:49:03;0.20;;;0.20;;
6598;SDS011;3335;43.198;27.918;2022-09-28T14:52:01;0.20;;;0.20;;
6598;SDS011;3335;43.198;27.918;2022-09-28T14:54:38;0.20;;;0.20;;
6598;SDS011;3335;43.198;27.918;2022-09-28T14:57:18;0.10;;;0.10;;
6598;SDS011;3335;43.198;27.918;2022-09-28T14:59:52;0.73;;;0.73;;
6598;SDS011;3335;43.198;27.918;2022-09-28T15:02:23;0.20;;;0.20;;
6598;SDS011;3335;43.198;27.918;2022-09-28T15:04:54;0.77;;;0.77;;
6598;SDS011;3335;43.198;27.918;2022-09-28T15:07:26;0.20;;;0.20;;
6598;SDS011;3335;43.198;27.918;2022-09-28T15:10:01;0.20;;;0.20;;
6598;SDS011;3335;43.198;27.918;2022-09-28T15:12:31;0.20;;;0.20;;
6598;SDS011;3335;43.198;27.918;2022-09-28T15:14:59;0.20;;;0.20;;
6598;SDS011;3335;43.198;27.918;2022-09-28T15:17:28;0.10;;;0.10;;
6598;SDS011;3335;43.198;27.918;2022-09-28T15:20:11;0.20;;;0.20;;
6598;SDS011;3335;43.198;27.918;2022-09-28T15:22:50;0.20;;;0.20;;
6598;SDS011;3335;43.198;27.918;2022-09-28T15:25:24;0.10;;;0.10;;
6598;SDS011;3335;43.198;27.918;2022-09-28T15:27:54;0.20;;;0.20;;
6598;SDS011;3335;43.198;27.918;2022-09-28T15:30:24;0.20;;;0.20;;
6598;SDS011;3335;43.198;27.918;2022-09-28T15:32:54;0.13;;;0.13;;
6598;SDS011;3335;43.198;27.918;2022-09-28T15:35:44;0.20;;;0.20;;
6598;SDS011;3335;43.198;27.918;2022-09-28T15:38:14;0.20;;;0.20;;
6598;SDS011;3335;43.198;27.918;2022-09-28T15:40:45;0.30;;;0.30;;
6598;SDS011;3335;43.198;27.918;2022-09-28T15:43:22;0.20;;;0.20;;
6598;SDS011;3335;43.198;27.918;2022-09-28T15:45:57;0.20;;;0.20;;
6598;SDS011;3335;43.198;27.918;2022-09-28T15:48:38;0.20;;;0.20;;
6598;SDS011;3335;43.198;27.918;2022-09-28T15:51:16;0.20;;;0.20;;
6598;SDS011;3335;43.198;27.918;2022-09-28T15:53:50;0.20;;;0.20;;
6598;SDS011;3335;43.198;27.918;2022-09-28T15:56:24;0.20;;;0.20;;
6598;SDS011;3335;43.198;27.918;2022-09-28T16:01:44;0.30;;;0.30;;
6598;SDS011;3335;43.198;27.918;2022-09-28T16:07:18;0.37;;;0.37;;
6598;SDS011;3335;43.198;27.918;2022-09-28T16:09:58;0.23;;;0.23;;
6598;SDS011;3335;43.198;27.918;2022-09-28T16:12:31;0.30;;;0.30;;
6598;SDS011;3335;43.198;27.918;2022-09-28T16:15:12;0.30;;;0.30;;
6598;SDS011;3335;43.198;27.918;2022-09-28T16:17:48;0.20;;;0.20;;
6598;SDS011;3335;43.198;27.918;2022-09-28T16:20:20;0.30;;;0.30;;
6598;SDS011;3335;43.198;27.918;2022-09-28T16:22:54;0.30;;;0.30;;
6598;SDS011;3335;43.198;27.918;2022-09-28T16:25:24;0.30;;;0.30;;
6598;SDS011;3335;43.198;27.918;2022-09-28T16:27:55;0.30;;;0.30;;
6598;SDS011;3335;43.198;27.918;2022-09-28T16:30:23;0.30;;;0.30;;
6598;SDS011;3335;43.198;27.918;2022-09-28T16:32:54;0.30;;;0.30;;
6598;SDS011;3335;43.198;27.918;2022-09-28T16:35:23;0.30;;;0.30;;
6598;SDS011;3335;43.198;27.918;2022-09-28T16:37:56;0.20;;;0.20;;
6598;SDS011;3335;43.198;27.918;2022-09-28T16:40:27;0.30;;;0.30;;
6598;SDS011;3335;43.198;27.918;2022-09-28T16:42:58;0.30;;;0.30;;
6598;SDS011;3335;43.198;27.918;2022-09-28T16:45:28;0.30;;;0.30;;
6598;SDS011;3335;43.198;27.918;2022-09-28T16:47:57;0.30;;;0.30;;
6598;SDS011;3335;43.198;27.918;2022-09-28T16:50:25;0.40;;;0.40;;
6598;SDS011;3335;43.198;27.918;2022-09-28T16:52:57;0.30;;;0.30;;
6598;SDS011;3335;43.198;27.918;2022-09-28T16:55:45;0.20;;;0.20;;
6598;SDS011;3335;43.198;27.918;2022-09-28T16:58:17;0.27;;;0.27;;
6598;SDS011;3335;43.198;27.918;2022-09-28T17:00:48;0.27;;;0.27;;
6598;SDS011;3335;43.198;27.918;2022-09-28T17:03:17;0.30;;;0.30;;
6598;SDS011;3335;43.198;27.918;2022-09-28T17:05:44;0.30;;;0.30;;
6598;SDS011;3335;43.198;27.918;2022-09-28T17:08:13;0.30;;;0.30;;
6598;SDS011;3335;43.198;27.918;2022-09-28T17:10:43;0.60;;;0.60;;
6598;SDS011;3335;43.198;27.918;2022-09-28T17:13:16;0.30;;;0.30;;
6598;SDS011;3335;43.198;27.918;2022-09-28T17:15:44;0.40;;;0.40;;
6598;SDS011;3335;43.198;27.918;2022-09-28T17:18:15;0.30;;;0.30;;
6598;SDS011;3335;43.198;27.918;2022-09-28T17:20:45;0.43;;;0.43;;
6598;SDS011;3335;43.198;27.918;2022-09-28T17:23:14;4.80;;;4.40;;
6598;SDS011;3335;43.198;27.918;2022-09-28T17:25:41;0.20;;;0.20;;
6598;SDS011;3335;43.198;27.918;2022-09-28T17:28:12;0.30;;;0.30;;
6598;SDS011;3335;43.198;27.918;2022-09-28T17:30:46;0.60;;;0.60;;
6598;SDS011;3335;43.198;27.918;2022-09-28T17:33:13;1.13;;;1.03;;
6598;SDS011;3335;43.198;27.918;2022-09-28T17:35:40;0.63;;;0.63;;
6598;SDS011;3335;43.198;27.918;2022-09-28T17:38:08;0.30;;;0.30;;
6598;SDS011;3335;43.198;27.918;2022-09-28T17:40:39;0.47;;;0.47;;
6598;SDS011;3335;43.198;27.918;2022-09-28T17:43:06;0.30;;;0.30;;
6598;SDS011;3335;43.198;27.918;2022-09-28T17:45:36;0.30;;;0.30;;
6598;SDS011;3335;43.198;27.918;2022-09-28T17:48:05;0.30;;;0.30;;
6598;SDS011;3335;43.198;27.918;2022-09-28T17:50:48;0.40;;;0.40;;
6598;SDS011;3335;43.198;27.918;2022-09-28T17:53:16;0.30;;;0.30;;
6598;SDS011;3335;43.198;27.918;2022-09-28T17:55:45;0.70;;;0.70;;
6598;SDS011;3335;43.198;27.918;2022-09-28T17:58:14;0.30;;;0.30;;
6598;SDS011;3335;43.198;27.918;2022-09-28T18:00:44;0.30;;;0.30;;
6598;SDS011;3335;43.198;27.918;2022-09-28T18:03:15;0.73;;;0.73;;
6598;SDS011;3335;43.198;27.918;2022-09-28T18:05:45;0.40;;;0.40;;
6598;SDS011;3335;43.198;27.918;2022-09-28T18:08:16;0.30;;;0.30;;
6598;SDS011;3335;43.198;27.918;2022-09-28T18:10:46;1.10;;;1.07;;
6598;SDS011;3335;43.198;27.918;2022-09-28T18:13:18;0.30;;;0.30;;
6598;SDS011;3335;43.198;27.918;2022-09-28T18:15:51;0.40;;;0.40;;
6598;SDS011;3335;43.198;27.918;2022-09-28T18:18:23;0.27;;;0.27;;
6598;SDS011;3335;43.198;27.918;2022-09-28T18:20:58;0.30;;;0.30;;
6598;SDS011;3335;43.198;27.918;2022-09-28T18:23:27;0.30;;;0.30;;
6598;SDS011;3335;43.198;27.918;2022-09-28T18:25:58;0.40;;;0.40;;
6598;SDS011;3335;43.198;27.918;2022-09-28T18:28:27;0.30;;;0.30;;
6598;SDS011;3335;43.198;27.918;2022-09-28T18:30:57;0.40;;;0.40;;
6598;SDS011;3335;43.198;27.918;2022-09-28T18:33:25;0.60;;;0.60;;
6598;SDS011;3335;43.198;27.918;2022-09-28T18:35:54;0.30;;;0.30;;
6598;SDS011;3335;43.198;27.918;2022-09-28T18:38:25;0.50;;;0.50;;
6598;SDS011;3335;43.198;27.918;2022-09-28T18:40:54;1.27;;;1.27;;
6598;SDS011;3335;43.198;27.918;2022-09-28T18:43:24;0.30;;;0.30;;
6598;SDS011;3335;43.198;27.918;2022-09-28T18:45:52;0.30;;;0.30;;
6598;SDS011;3335;43.198;27.918;2022-09-28T18:48:24;0.30;;;0.30;;
6598;SDS011;3335;43.198;27.918;2022-09-28T18:50:54;0.30;;;0.30;;